Weather observations for the past three days for
Wenatchee - Pangborn Memorial Airport
Imperial (Metric)
Date Time (pdt) Wind (mph) Vis. (mi.) Weather Sky Cond. Temperature (ºF) Relative Humidity Wind Chill (°F) Heat Index (°F) Pressure Precipitation (in)
Air Dwpt 6 hour altimeter (in) sea level (mb) 1 hr 3 hr 6 hr
Max. Min.
10 08:55 W 10 10.00 Fair CLR 57.9 41 53% 29.98 1014.9
10 07:55 W 5 10.00 Fair CLR 55 42.1 62% 29.99 1015.1
10 06:55 NW 10 10.00 Fair CLR 55 41 59% 29.98 1014.8
10 05:55 NW 9 10.00 Fair CLR 55 39.9 57% 29.98 1014.8
10 04:55 W 6 10.00 Fair CLR 54 41 63 53.1 62% 29.97 1014.6
10 03:55 NE 3 10.00 Fair CLR 55 39.9 57% 29.98 1014.8
10 02:55 E 5 10.00 Fair CLR 55.9 39 53% 29.99 1014.9
10 01:55 E 6 10.00 Fair CLR 55.9 39.9 55% 29.99 1015.2
10 00:55 N 3 10.00 Fair CLR 60.1 39 46% 29.99 1015.2
09 23:55 E 9 10.00 Fair CLR 61 39 44% 29.99 1015.0
09 22:55 E 9 10.00 Fair CLR 63 39 75 62.1 41% 30 1015.5
09 21:55 E 9 10.00 Fair CLR 64.9 39 39% 30 1015.6
09 20:55 E 8 10.00 Fair CLR 66 39 37% 29.99 1015.3
09 19:55 SE 9 10.00 Fair CLR 71.1 36 28% 29.99 1015.0
09 18:55 SE 9 10.00 Fair CLR 72 37 28% 29.99 1015.1
09 17:55 SE 13 10.00 Fair CLR 73.9 37.9 27% 30.01 1015.7
09 16:55 SE 12 10.00 Fair CLR 75 37 75.9 66 25% 77 30.01 1015.9
09 15:55 E 9 10.00 Fair CLR 75 37 25% 77 30.03 1016.4
09 14:55 SE 9 10.00 Fair CLR 75 35.1 23% 76 30.05 1017.2
09 13:55 SE 7 10.00 Fair CLR 73 35.1 25% 30.07 1017.9
09 12:55 E 10 10.00 Fair CLR 72 34 25% 30.09 1018.4
09 11:55 Vrbl 6 10.00 Fair CLR 69.1 34 27% 30.1 1018.9
09 10:55 Vrbl 5 10.00 Fair CLR 66.9 35.1 66.9 52 31% 30.11 1019.4
09 09:55 N 3 10.00 Fair CLR 62.1 37.9 41% 30.12 1019.7
09 08:55 W 7 10.00 Fair CLR 60.1 37.9 44% 30.13 1020.0
09 07:55 SW 7 10.00 Fair CLR 57 37.9 49% 30.12 1019.9
09 06:55 N 10 10.00 Fair CLR 55 37 51% 30.12 1019.6
09 05:55 N 6 10.00 Fair CLR 52 37 57% 30.11 1019.3
09 04:55 NW 12 10.00 Fair CLR 52 37 59 52 57% 30.1 1018.9
09 03:55 NW 12 10.00 Fair CLR 54 37 53% 30.1 1019.0
09 02:55 Vrbl 5 10.00 Fair CLR 55 36 49% 30.1 1018.7
09 01:55 NW 16 10.00 Fair CLR 55.9 36 47% 30.08 1018.1
09 00:55 NW 7 10.00 Fair CLR 55.9 35.1 46% 30.09 1018.5
08 23:55 W 14 G 21 10.00 Fair CLR 57.9 34 41% 30.07 1017.7
08 22:55 W 18 10.00 Fair CLR 59 30.9 75 59 35% 30.05 1017.3
08 21:55 NW 13 10.00 Fair CLR 61 28 29% 30.05 1017.2
08 20:55 Vrbl 7 G 23 10.00 Fair CLR 63 24.1 23% 30.02 1016.1
08 19:55 NW 18 G 28 10.00 Fair CLR 66 21 18% 29.98 1014.9
08 18:55 NW 24 G 40 10.00 Fair and Breezy CLR 70 19.9 15% 29.95 1013.7
08 17:55 NW 24 G 37 10.00 Fair and Breezy CLR 72 21 15% 29.93 1013.1
08 16:55 NW 21 G 25 10.00 Fair and Breezy CLR 73.9 19.9 75.9 69.1 13% 29.93 1013.1
08 15:55 NW 23 G 31 10.00 Fair and Breezy CLR 73.9 18 12% 29.93 1012.8
08 14:55 NW 20 G 29 10.00 Fair CLR 75 21.9 14% 75 29.92 1012.6
08 13:55 NW 13 G 23 10.00 Fair CLR 73.9 23 15% 29.91 1012.2
08 12:55 NW 20 10.00 Fair CLR 71.1 28.9 21% 29.91 1012.3
08 11:55 NW 15 10.00 Fair CLR 71.1 30 22% 29.9 1012.0
08 10:55 NW 24 G 31 10.00 Fair and Breezy CLR 69.1 28 69.1 55.9 22% 29.91 1012.4
08 09:55 NW 21 G 26 10.00 Fair and Breezy CLR 64.9 24.1 21% 29.92 1012.6
08 08:55 NW 18 10.00 Fair CLR 62.1 19.9 20% 29.92 1012.4
08 07:55 W 12 10.00 Fair CLR 57.9 27 31% 29.91 1012.4
08 06:55 NW 7 10.00 Fair CLR 57 27 32% 29.91 1012.2
08 05:55 NW 10 10.00 Fair CLR 57 24.1 28% 29.89 1011.7
08 04:55 W 9 10.00 Fair CLR 57 24.1 64.9 55.9 28% 29.9 1011.7
08 03:55 NW 10 10.00 Fair CLR 59 23 25% 29.89 1011.5
08 02:55 NW 8 10.00 Fair CLR 59 23 25% 29.89 1011.5
08 01:55 NW 13 10.00 Fair CLR 61 23 23% 29.89 1011.6
08 00:55 NW 14 10.00 Fair CLR 62.1 21.9 21% 29.89 1011.5
07 23:55 NW 13 10.00 Fair CLR 64 21.9 20% 29.89 1011.6
07 22:55 NW 13 10.00 Fair CLR 64.9 27 80.1 64.9 24% 29.89 1011.7
07 21:55 N 10 10.00 Fair CLR 68 37 32% 29.89 1011.5
07 20:55 SE 8 10.00 Fair CLR 72 39.9 31% 29.87 1010.7
07 19:55 E 7 10.00 Fair CLR 73.9 39.9 29% 29.85 1010.2
07 18:55 E 9 10.00 Fair CLR 75.9 39 26% 77 29.85 1010.0
07 17:55 E 8 10.00 Fair CLR 78.1 39 25% 78 29.85 1010.3
07 16:55 SE 12 10.00 Fair CLR 80.1 37.9 81 68 22% 79 29.86 1010.4
07 15:55 S 5 10.00 Fair CLR 79 37 22% 78 29.87 1011.0
07 14:55 N 5 10.00 Fair CLR 77 36 23% 77 29.9 1011.8
07 13:55 Vrbl 3 10.00 Fair CLR 75 36 24% 76 29.92 1012.6
07 12:55 W 8 10.00 Fair CLR 73 37 27% 29.94 1013.3
07 11:55 Calm 10.00 Fair CLR 70 37.9 31% 29.95 1013.8
07 10:55 NW 12 10.00 Fair CLR 69.1 39 69.1 57 33% 29.97 1014.2
07 09:55 N 13 10.00 Fair CLR 64.9 39 39% 29.97 1014.5
Date Time (pdt) Wind (mph) Vis. (mi.) Weather Sky Cond. Air Dwpt Max. Min. Relative Humidity Wind Chill (°F) Heat Index (°F) altimeter (in) sea level (mb) 1 hr 3 hr 6 hr
6 hour
Temperature (ºF) Pressure Precipitation (in)